Logo AVAMET
Benvolgut visitant, si us plau, ingressa Recuperar contrasenya

Dolores

Dades diàries. Acumulats / Últims 30 dies disponibles

Data Temperatura (°C) Humitat rel. (%) Pressió rel. (hPa) Vent (km/h) Precipitació
Mínima Mitjana Màxima Amplitud
tèrmica
Mínima Mitjana Màxima Mínima Mitjana Màxima Predom. Mitjana Ràfega
màxima
Total
(mm)
Índex-n
Mínima Mitjana Màxima Mínima Mitjana Màxima n
0 a 1
P0 max
mm 5'
Dades mensuals acumulades fins l'últim dia disponible
11/2019 4,4 11,3 18,9 16,2 16,2 21,2 28,7 24,3 20 50 97 999 1.012 1.022   59,0 3,8
Dades anuals acumulades fins l'últim dia disponible
2019 -1,2 13,5 25,4 19,3 13,5 25,1 40,2 41,4 1 61 99 995 1.017 1.035   74,0 358,5
Últims 30 dies disponibles
20-11-2019 4,4     10,8     17,1 12,7 42 67 92 1.009 1.013 1.016 17,0 0,4
19-11-2019 6,3     11,8     17,4 11,1 29 54 79 1.015 1.017 1.019 25,0 0,0
18-11-2019 8,8     13,6     18,4 9,6 32 64 96 1.006 1.012 1.017 29,0 2,8
17-11-2019 6,8     12,8     18,9 12,1 27 49 71 1.009 1.013 1.017 32,0 0,1
16-11-2019 8,0     12,6     17,1 9,1 24 43 62 1.006 1.011 1.016 28,0 0,0
15-11-2019 7,8     12,0     16,2 8,4 31 46 61 1.001 1.004 1.007 39,0 0,0
14-11-2019 8,9     13,2     17,4 8,5 41 69 97 999 1.005 1.011 40,0 0,0
13-11-2019 12,0     18,3     24,6 12,6 30 57 83 1.005 1.009 1.012 57,0 0,0
12-11-2019 9,6     15,2     20,8 11,2 20 40 60 1.010 1.012 1.013 37,0 0,0
11-11-2019 7,8     13,4     19,0 11,2 27 44 60 1.011 1.014 1.016 42,0 0,0
10-11-2019 12,4     15,2     18,0 5,6 23 46 68 1.010 1.012 1.014 59,0 0,0
09-11-2019 12,1     16,6     21,1 9,0 20 43 65 1.014 1.018 1.022 30,0 0,0
08-11-2019 11,0     14,8     18,6 7,6 25 42 59 1.010 1.015 1.019 46,0 0,0
07-11-2019 9,9     17,1     24,4 14,5 30 50 69 1.007 1.011 1.014 25,0 0,0
06-11-2019 13,5     17,8     22,1 8,6 22 41 59 1.012 1.014 1.016 39,0 0,0
05-11-2019 15,3     18,5     21,7 6,4 25 49 72 1.006 1.010 1.014 45,0 0,0
04-11-2019 16,4     21,8     27,1 10,7 30 46 62 1.006 1.009 1.012 43,0 0,0
03-11-2019 17,6     22,5     27,4 9,8 28 47 66 1.002 1.007 1.012 58,0 0,3
02-11-2019 17,6     22,5     27,4 9,8 28 52 75 1.005 1.010 1.015 33,0 0,1
01-11-2019 18,9     23,8     28,7 9,8 36 55 73 1.015 1.018 1.021 35,0 0,1
31-10-2019 17,5     22,5     27,5 10,0 36 63 90 1.019 1.021 1.022 33,0 0,0
30-10-2019 14,2     20,9     27,5 13,3 33 63 92 1.019 1.021 1.022 23,0 0,1
29-10-2019 13,3     20,9     28,5 15,2 33 65 97 1.015 1.017 1.019 17,0 0,3
28-10-2019 11,7     17,4     23,0 11,3 61 80 98 1.016 1.019 1.021 14,0 0,0
27-10-2019 11,9     18,1     24,2 12,3 52 75 97 1.020 1.022 1.024 17,0 0,0
26-10-2019 10,5     17,9     25,3 14,8 41 69 96 1.020 1.022 1.023 17,0 0,0
25-10-2019 10,4     17,6     24,9 14,5 33 62 91 1.021 1.023 1.024 20,0 0,0
24-10-2019 11,0     16,2     21,4 10,4 40 62 84 1.011 1.017 1.023 37,0 0,0
23-10-2019 10,9     16,1     21,4 10,5 38 66 94 1.006 1.009 1.012 28,0 0,1
22-10-2019 12,5     14,3     16,2 3,7 76 86 95 1.006 1.012 1.017 23,0 19,2
Últims 13 mesos disponibles
10/2019 9,8 14,8 20,8 20,6 16,2 26,4 34,7 24,9 46 65 86 1.009 1.017 1.023 39,0 20,4
09/2019 16,4 20,5 23,1 24,5 21,9 28,6 33,4 17,0 49 69 81 1.008 1.015 1.020 54,0 147,7
08/2019 18,7 21,2 24,0 26,8 28,7 32,4 40,2 21,5 48 65 75 1.011 1.016 1.021 48,0 28,0
07/2019 18,9 21,3 25,4 27,1 29,3 33,0 37,6 18,7 44 57 71 1.006 1.013 1.021 45,0 0,0
06/2019 11,7 16,8 20,8 22,9 23,8 29,0 36,1 24,4 43 59 75 1.009 1.014 1.024 69,0 0,0
05/2019 9,9 13,9 18,9 19,6 21,0 25,3 31,8 21,9 51 62 73 1.004 1.013 1.022 57,0 1,5
04/2019 7,2 10,8 14,1 16,2 14,4 21,5 29,6 22,4 47 62 85 1.002 1.013 1.028 62,0 137,7
03/2019 3,6 7,0 13,2 13,8 14,7 20,7 28,3 24,7 46 59 78 1.012 1.023 1.031 54,0 18,1
02/2019 1,9 5,3 12,1 12,1 14,3 19,0 26,0 24,1 25 60 77 999 1.025 1.034 74,0 0,0
01/2019 -1,2 4,8 13,0 11,2 13,5 17,6 22,5 23,7 31 57 77 1.006 1.019 1.031 55,0 1,3
12/2018 2,5 7,4 11,1 13,0 11,7 18,7 24,3 21,8 49 67 89 1.010 1.024 1.032 82,0 9,5
11/2018 4,1 9,9 15,2 14,8 15,4 19,8 23,3 19,2 48 67 85 1.001 1.015 1.022 57,0 59,2
10/2018 7,5 14,3 19,8 19,3 13,2 24,4 28,4 20,9 36 67 79 999 1.014 1.025 58,0 29,7
Tots els anys disponibles
2018 0,8 13,5 25,0 18,8 10,8 24,1 37,2 36,4 34 63 89 994 1.016 1.034 82,0 289,6
Temperatura (°C)
Humitat relativa (%)
Velocitat del vent i ràfega màxima (km/h)
Direcció del vent (°)
Pressió (hPa)
Precipitació (mm)
Nota sobre les dades: s'avisa a l'usuari de la provisionalitat i no oficialitat d'aquestes dades
Logo AVAMET blanc
Web allotjada a Sollutia
Llicència de Creative CommonsLa web d'AVAMET i els seus continguts estan subjectes a una llicència de
Reconeixement - No Comercial - Compartir igual
Últimes estacions: Faura (Inforatge), Benifairó de les Valls (Inforatge), Xàbia - Les Valls (Soci), Xàbia - Alt de la Granadella (Soci), Villena - Sierra de Salinas (Soci), Sueca - Centre (Inforatge) - - -